sensor_id;sensor_type;location;lat;lon;timestamp;temperature;humidity
21255;DHT22;10785;50.674;17.954;2022-12-18T00:00:11;-4.10;2.10
21255;DHT22;10785;50.674;17.954;2022-12-18T00:02:40;-4.10;3.60
21255;DHT22;10785;50.674;17.954;2022-12-18T00:05:10;-4.20;2.50
21255;DHT22;10785;50.674;17.954;2022-12-18T00:07:39;-4.10;1.00
21255;DHT22;10785;50.674;17.954;2022-12-18T00:10:08;-4.10;4.40
21255;DHT22;10785;50.674;17.954;2022-12-18T00:12:41;-4.10;5.30
21255;DHT22;10785;50.674;17.954;2022-12-18T00:15:09;-4.10;7.40
21255;DHT22;10785;50.674;17.954;2022-12-18T00:17:38;-4.10;8.30
21255;DHT22;10785;50.674;17.954;2022-12-18T00:20:08;-4.00;1.00
21255;DHT22;10785;50.674;17.954;2022-12-18T00:22:38;-4.10;7.00
21255;DHT22;10785;50.674;17.954;2022-12-18T00:25:08;-4.10;3.40
21255;DHT22;10785;50.674;17.954;2022-12-18T00:27:36;-4.00;1.00
21255;DHT22;10785;50.674;17.954;2022-12-18T00:30:06;-4.00;2.00
21255;DHT22;10785;50.674;17.954;2022-12-18T00:32:35;-4.10;1.00
21255;DHT22;10785;50.674;17.954;2022-12-18T00:35:05;-4.00;1.30
21255;DHT22;10785;50.674;17.954;2022-12-18T00:37:34;-4.00;3.80
21255;DHT22;10785;50.674;17.954;2022-12-18T00:40:07;-4.10;4.20
21255;DHT22;10785;50.674;17.954;2022-12-18T00:42:36;-4.10;1.00
21255;DHT22;10785;50.674;17.954;2022-12-18T00:45:22;-4.10;1.00
21255;DHT22;10785;50.674;17.954;2022-12-18T00:47:51;-4.10;2.90
21255;DHT22;10785;50.674;17.954;2022-12-18T00:50:20;-4.10;1.00
21255;DHT22;10785;50.674;17.954;2022-12-18T00:52:49;-4.10;1.00
21255;DHT22;10785;50.674;17.954;2022-12-18T00:55:19;-4.10;1.00
21255;DHT22;10785;50.674;17.954;2022-12-18T00:57:47;-4.10;1.00
21255;DHT22;10785;50.674;17.954;2022-12-18T01:00:16;-4.20;1.00
21255;DHT22;10785;50.674;17.954;2022-12-18T01:02:45;-4.20;1.00
21255;DHT22;10785;50.674;17.954;2022-12-18T01:05:14;-4.20;1.00
21255;DHT22;10785;50.674;17.954;2022-12-18T01:07:43;-4.20;1.00
21255;DHT22;10785;50.674;17.954;2022-12-18T01:10:12;-4.20;1.00
21255;DHT22;10785;50.674;17.954;2022-12-18T01:12:42;-4.20;1.00
21255;DHT22;10785;50.674;17.954;2022-12-18T01:15:12;-4.20;1.00
21255;DHT22;10785;50.674;17.954;2022-12-18T01:17:42;-4.30;1.00
21255;DHT22;10785;50.674;17.954;2022-12-18T01:20:12;-4.30;1.00
21255;DHT22;10785;50.674;17.954;2022-12-18T01:22:41;-4.30;1.00
21255;DHT22;10785;50.674;17.954;2022-12-18T01:25:09;-4.30;1.00
21255;DHT22;10785;50.674;17.954;2022-12-18T01:27:38;-4.30;1.00
21255;DHT22;10785;50.674;17.954;2022-12-18T01:30:09;-4.30;1.00
21255;DHT22;10785;50.674;17.954;2022-12-18T01:32:38;-4.30;1.00
21255;DHT22;10785;50.674;17.954;2022-12-18T01:35:08;-4.40;1.00
21255;DHT22;10785;50.674;17.954;2022-12-18T01:37:36;-4.40;1.00
21255;DHT22;10785;50.674;17.954;2022-12-18T01:40:06;-4.40;1.00
21255;DHT22;10785;50.674;17.954;2022-12-18T01:42:35;-4.40;1.00
21255;DHT22;10785;50.674;17.954;2022-12-18T01:45:08;-4.40;1.00
21255;DHT22;10785;50.674;17.954;2022-12-18T01:47:52;-4.40;1.00
21255;DHT22;10785;50.674;17.954;2022-12-18T01:50:24;-4.40;1.20
21255;DHT22;10785;50.674;17.954;2022-12-18T01:52:56;-4.40;1.00
21255;DHT22;10785;50.674;17.954;2022-12-18T01:55:28;-4.40;3.90
21255;DHT22;10785;50.674;17.954;2022-12-18T01:57:58;-4.40;1.00
21255;DHT22;10785;50.674;17.954;2022-12-18T02:00:28;-4.50;1.00
21255;DHT22;10785;50.674;17.954;2022-12-18T02:02:58;-4.50;1.00
21255;DHT22;10785;50.674;17.954;2022-12-18T02:05:38;-4.40;1.00
21255;DHT22;10785;50.674;17.954;2022-12-18T02:08:12;-4.40;1.00
21255;DHT22;10785;50.674;17.954;2022-12-18T02:10:47;-4.40;1.00
21255;DHT22;10785;50.674;17.954;2022-12-18T02:13:30;-4.40;1.00
21255;DHT22;10785;50.674;17.954;2022-12-18T02:16:24;-4.40;1.00
21255;DHT22;10785;50.674;17.954;2022-12-18T02:18:57;-4.40;1.00
21255;DHT22;10785;50.674;17.954;2022-12-18T02:21:32;-4.50;1.00
21255;DHT22;10785;50.674;17.954;2022-12-18T02:24:13;-4.60;1.00
21255;DHT22;10785;50.674;17.954;2022-12-18T02:26:49;-4.60;1.00
21255;DHT22;10785;50.674;17.954;2022-12-18T02:29:24;-4.60;1.00
21255;DHT22;10785;50.674;17.954;2022-12-18T02:31:56;-4.60;1.00
21255;DHT22;10785;50.674;17.954;2022-12-18T02:34:32;-4.50;2.80
21255;DHT22;10785;50.674;17.954;2022-12-18T02:37:07;-4.50;4.00
21255;DHT22;10785;50.674;17.954;2022-12-18T02:39:38;-4.40;1.00
21255;DHT22;10785;50.674;17.954;2022-12-18T02:42:12;-4.40;1.00
21255;DHT22;10785;50.674;17.954;2022-12-18T02:44:45;-4.40;1.00
21255;DHT22;10785;50.674;17.954;2022-12-18T02:47:20;-4.40;1.00
21255;DHT22;10785;50.674;17.954;2022-12-18T02:49:58;-4.40;1.00
21255;DHT22;10785;50.674;17.954;2022-12-18T02:52:41;-4.30;1.00
21255;DHT22;10785;50.674;17.954;2022-12-18T02:55:29;-4.40;1.00
21255;DHT22;10785;50.674;17.954;2022-12-18T02:58:12;-4.40;1.00
21255;DHT22;10785;50.674;17.954;2022-12-18T03:00:51;-4.40;1.00
21255;DHT22;10785;50.674;17.954;2022-12-18T03:03:25;-4.40;1.00
21255;DHT22;10785;50.674;17.954;2022-12-18T03:06:01;-4.40;1.00
21255;DHT22;10785;50.674;17.954;2022-12-18T03:08:36;-4.30;1.00
21255;DHT22;10785;50.674;17.954;2022-12-18T03:11:07;-4.40;1.00
21255;DHT22;10785;50.674;17.954;2022-12-18T03:13:42;-4.40;1.00
21255;DHT22;10785;50.674;17.954;2022-12-18T03:16:16;-4.40;1.00
21255;DHT22;10785;50.674;17.954;2022-12-18T03:18:49;-4.50;1.00
21255;DHT22;10785;50.674;17.954;2022-12-18T03:21:23;-4.50;1.00
21255;DHT22;10785;50.674;17.954;2022-12-18T03:23:54;-4.50;1.00
21255;DHT22;10785;50.674;17.954;2022-12-18T03:26:28;-4.40;1.00
21255;DHT22;10785;50.674;17.954;2022-12-18T03:29:04;-4.40;1.00
21255;DHT22;10785;50.674;17.954;2022-12-18T03:31:37;-4.40;1.00
21255;DHT22;10785;50.674;17.954;2022-12-18T03:34:12;-4.30;1.00
21255;DHT22;10785;50.674;17.954;2022-12-18T03:36:45;-4.40;1.00
21255;DHT22;10785;50.674;17.954;2022-12-18T03:39:14;-4.40;1.70
21255;DHT22;10785;50.674;17.954;2022-12-18T03:41:55;-4.40;1.00
21255;DHT22;10785;50.674;17.954;2022-12-18T03:44:40;-4.40;1.00
21255;DHT22;10785;50.674;17.954;2022-12-18T03:47:15;-4.40;1.00
21255;DHT22;10785;50.674;17.954;2022-12-18T03:49:50;-4.40;1.00
21255;DHT22;10785;50.674;17.954;2022-12-18T03:52:26;-4.40;1.00
21255;DHT22;10785;50.674;17.954;2022-12-18T03:54:58;-4.40;1.00
21255;DHT22;10785;50.674;17.954;2022-12-18T03:57:30;-4.50;1.00
21255;DHT22;10785;50.674;17.954;2022-12-18T04:00:08;-4.70;1.00
21255;DHT22;10785;50.674;17.954;2022-12-18T04:02:43;-4.80;1.00
21255;DHT22;10785;50.674;17.954;2022-12-18T04:05:20;-4.80;1.00
21255;DHT22;10785;50.674;17.954;2022-12-18T04:07:50;-4.80;1.00
21255;DHT22;10785;50.674;17.954;2022-12-18T04:10:21;-4.80;1.00
21255;DHT22;10785;50.674;17.954;2022-12-18T04:12:50;-4.70;1.00
21255;DHT22;10785;50.674;17.954;2022-12-18T04:15:25;-4.70;1.00
21255;DHT22;10785;50.674;17.954;2022-12-18T04:17:55;-4.60;4.10
21255;DHT22;10785;50.674;17.954;2022-12-18T04:20:25;-4.60;2.50
21255;DHT22;10785;50.674;17.954;2022-12-18T04:22:54;-4.60;1.00
21255;DHT22;10785;50.674;17.954;2022-12-18T04:25:24;-4.50;1.00
21255;DHT22;10785;50.674;17.954;2022-12-18T04:28:04;-4.50;2.60
21255;DHT22;10785;50.674;17.954;2022-12-18T04:30:34;-4.50;1.00
21255;DHT22;10785;50.674;17.954;2022-12-18T04:33:03;-4.50;3.70
21255;DHT22;10785;50.674;17.954;2022-12-18T04:35:32;-4.50;1.20
21255;DHT22;10785;50.674;17.954;2022-12-18T04:38:00;-4.40;1.00
21255;DHT22;10785;50.674;17.954;2022-12-18T04:40:29;-4.50;3.50
21255;DHT22;10785;50.674;17.954;2022-12-18T04:42:57;-4.40;2.30
21255;DHT22;10785;50.674;17.954;2022-12-18T04:45:26;-4.50;1.00
21255;DHT22;10785;50.674;17.954;2022-12-18T04:47:57;-4.50;1.00
21255;DHT22;10785;50.674;17.954;2022-12-18T04:50:26;-4.40;1.00
21255;DHT22;10785;50.674;17.954;2022-12-18T04:52:54;-4.50;1.00
21255;DHT22;10785;50.674;17.954;2022-12-18T04:55:24;-4.50;1.00
21255;DHT22;10785;50.674;17.954;2022-12-18T04:57:53;-4.50;1.00
21255;DHT22;10785;50.674;17.954;2022-12-18T05:00:22;-4.40;1.00
21255;DHT22;10785;50.674;17.954;2022-12-18T05:02:51;-4.40;1.00
21255;DHT22;10785;50.674;17.954;2022-12-18T05:05:21;-4.50;1.00
21255;DHT22;10785;50.674;17.954;2022-12-18T05:07:50;-4.50;1.00
21255;DHT22;10785;50.674;17.954;2022-12-18T05:10:18;-4.50;1.00
21255;DHT22;10785;50.674;17.954;2022-12-18T05:12:47;-4.50;1.00
21255;DHT22;10785;50.674;17.954;2022-12-18T05:15:29;-4.50;1.00
21255;DHT22;10785;50.674;17.954;2022-12-18T05:17:58;-4.50;1.00
21255;DHT22;10785;50.674;17.954;2022-12-18T05:20:28;-4.50;1.00
21255;DHT22;10785;50.674;17.954;2022-12-18T05:22:57;-4.50;1.00
21255;DHT22;10785;50.674;17.954;2022-12-18T05:25:27;-4.50;1.00
21255;DHT22;10785;50.674;17.954;2022-12-18T05:27:56;-4.50;1.00
21255;DHT22;10785;50.674;17.954;2022-12-18T05:30:24;-4.40;1.00
21255;DHT22;10785;50.674;17.954;2022-12-18T05:32:53;-4.40;1.00
21255;DHT22;10785;50.674;17.954;2022-12-18T05:35:22;-4.50;1.00
21255;DHT22;10785;50.674;17.954;2022-12-18T05:37:52;-4.50;1.00
21255;DHT22;10785;50.674;17.954;2022-12-18T05:40:20;-4.50;1.00
21255;DHT22;10785;50.674;17.954;2022-12-18T05:42:49;-4.50;1.00
21255;DHT22;10785;50.674;17.954;2022-12-18T05:45:17;-4.50;1.00
21255;DHT22;10785;50.674;17.954;2022-12-18T05:47:46;-4.50;1.00
21255;DHT22;10785;50.674;17.954;2022-12-18T05:50:15;-4.50;1.00
21255;DHT22;10785;50.674;17.954;2022-12-18T05:52:43;-4.50;1.00
21255;DHT22;10785;50.674;17.954;2022-12-18T05:55:13;-4.40;1.00
21255;DHT22;10785;50.674;17.954;2022-12-18T05:57:42;-4.40;1.00
21255;DHT22;10785;50.674;17.954;2022-12-18T06:00:11;-4.40;1.00
21255;DHT22;10785;50.674;17.954;2022-12-18T06:02:40;-4.40;1.00
21255;DHT22;10785;50.674;17.954;2022-12-18T06:05:09;-4.40;1.00
21255;DHT22;10785;50.674;17.954;2022-12-18T06:07:38;-4.40;1.00
21255;DHT22;10785;50.674;17.954;2022-12-18T06:10:07;-4.50;1.00
21255;DHT22;10785;50.674;17.954;2022-12-18T06:12:37;-4.40;1.00
21255;DHT22;10785;50.674;17.954;2022-12-18T06:15:07;-4.50;1.00
21255;DHT22;10785;50.674;17.954;2022-12-18T06:17:36;-4.50;1.00
21255;DHT22;10785;50.674;17.954;2022-12-18T06:20:05;-4.50;1.00
21255;DHT22;10785;50.674;17.954;2022-12-18T06:22:35;-4.50;1.00
21255;DHT22;10785;50.674;17.954;2022-12-18T06:25:05;-4.50;1.00
21255;DHT22;10785;50.674;17.954;2022-12-18T06:27:34;-4.50;1.00
21255;DHT22;10785;50.674;17.954;2022-12-18T06:30:04;-4.50;1.00
21255;DHT22;10785;50.674;17.954;2022-12-18T06:32:33;-4.50;1.00
21255;DHT22;10785;50.674;17.954;2022-12-18T06:35:02;-4.50;1.00
21255;DHT22;10785;50.674;17.954;2022-12-18T06:37:31;-4.50;1.00
21255;DHT22;10785;50.674;17.954;2022-12-18T06:40:00;-4.50;1.00
21255;DHT22;10785;50.674;17.954;2022-12-18T06:42:29;-4.60;1.00
21255;DHT22;10785;50.674;17.954;2022-12-18T06:44:59;-4.50;1.00
21255;DHT22;10785;50.674;17.954;2022-12-18T06:47:31;-4.60;1.00
21255;DHT22;10785;50.674;17.954;2022-12-18T06:50:00;-4.50;1.00
21255;DHT22;10785;50.674;17.954;2022-12-18T06:52:31;-4.50;1.00
21255;DHT22;10785;50.674;17.954;2022-12-18T06:54:59;-4.50;1.00
21255;DHT22;10785;50.674;17.954;2022-12-18T06:57:29;-4.50;1.00
21255;DHT22;10785;50.674;17.954;2022-12-18T06:59:57;-4.50;1.00
21255;DHT22;10785;50.674;17.954;2022-12-18T07:02:26;-4.50;1.00
21255;DHT22;10785;50.674;17.954;2022-12-18T07:04:56;-4.50;1.00
21255;DHT22;10785;50.674;17.954;2022-12-18T07:07:24;-4.50;1.00
21255;DHT22;10785;50.674;17.954;2022-12-18T07:09:53;-4.50;1.00
21255;DHT22;10785;50.674;17.954;2022-12-18T07:12:21;-4.40;1.00
21255;DHT22;10785;50.674;17.954;2022-12-18T07:14:50;-4.40;1.00
21255;DHT22;10785;50.674;17.954;2022-12-18T07:17:19;-4.40;1.00
21255;DHT22;10785;50.674;17.954;2022-12-18T07:19:47;-4.40;1.00
21255;DHT22;10785;50.674;17.954;2022-12-18T07:22:17;-4.30;1.00
21255;DHT22;10785;50.674;17.954;2022-12-18T07:24:46;-4.30;1.00
21255;DHT22;10785;50.674;17.954;2022-12-18T07:27:17;-4.20;1.00
21255;DHT22;10785;50.674;17.954;2022-12-18T07:29:46;-4.20;1.00
21255;DHT22;10785;50.674;17.954;2022-12-18T07:32:14;-4.20;1.00
21255;DHT22;10785;50.674;17.954;2022-12-18T07:34:43;-4.20;1.00
21255;DHT22;10785;50.674;17.954;2022-12-18T07:37:13;-4.10;1.00
21255;DHT22;10785;50.674;17.954;2022-12-18T07:39:43;-4.10;1.00
21255;DHT22;10785;50.674;17.954;2022-12-18T07:42:14;-4.10;1.00
21255;DHT22;10785;50.674;17.954;2022-12-18T07:45:02;-4.00;1.00
21255;DHT22;10785;50.674;17.954;2022-12-18T07:47:34;-4.00;1.00
21255;DHT22;10785;50.674;17.954;2022-12-18T07:50:04;-4.00;1.00
21255;DHT22;10785;50.674;17.954;2022-12-18T07:52:33;-4.00;1.00
21255;DHT22;10785;50.674;17.954;2022-12-18T07:55:03;-4.00;1.00
21255;DHT22;10785;50.674;17.954;2022-12-18T07:57:33;-4.00;1.00
21255;DHT22;10785;50.674;17.954;2022-12-18T08:00:22;-4.00;1.00
21255;DHT22;10785;50.674;17.954;2022-12-18T08:02:50;-4.00;1.00
21255;DHT22;10785;50.674;17.954;2022-12-18T08:05:19;-4.00;1.00
21255;DHT22;10785;50.674;17.954;2022-12-18T08:07:48;-4.00;1.00
21255;DHT22;10785;50.674;17.954;2022-12-18T08:10:18;-4.00;1.00
21255;DHT22;10785;50.674;17.954;2022-12-18T08:12:49;-4.00;1.00
21255;DHT22;10785;50.674;17.954;2022-12-18T08:15:18;-3.80;1.00
21255;DHT22;10785;50.674;17.954;2022-12-18T08:17:46;-4.00;1.00
21255;DHT22;10785;50.674;17.954;2022-12-18T08:20:15;-4.00;1.00
21255;DHT22;10785;50.674;17.954;2022-12-18T08:22:45;-3.90;1.00
21255;DHT22;10785;50.674;17.954;2022-12-18T08:25:14;-3.90;1.00
21255;DHT22;10785;50.674;17.954;2022-12-18T08:27:44;-3.90;1.00
21255;DHT22;10785;50.674;17.954;2022-12-18T08:30:13;-3.90;1.00
21255;DHT22;10785;50.674;17.954;2022-12-18T08:32:42;-3.80;1.00
21255;DHT22;10785;50.674;17.954;2022-12-18T08:35:10;-3.80;1.00
21255;DHT22;10785;50.674;17.954;2022-12-18T08:37:44;-3.80;1.00
21255;DHT22;10785;50.674;17.954;2022-12-18T08:40:13;-3.70;1.00
21255;DHT22;10785;50.674;17.954;2022-12-18T08:42:43;-3.70;1.00
21255;DHT22;10785;50.674;17.954;2022-12-18T08:45:29;-3.60;1.00
21255;DHT22;10785;50.674;17.954;2022-12-18T08:48:01;-3.60;1.00
21255;DHT22;10785;50.674;17.954;2022-12-18T08:50:29;-3.50;1.00
21255;DHT22;10785;50.674;17.954;2022-12-18T08:52:58;-3.40;1.00
21255;DHT22;10785;50.674;17.954;2022-12-18T08:55:26;-3.40;1.00
21255;DHT22;10785;50.674;17.954;2022-12-18T08:57:56;-3.40;1.00
21255;DHT22;10785;50.674;17.954;2022-12-18T09:00:25;-3.30;1.00
21255;DHT22;10785;50.674;17.954;2022-12-18T09:02:54;-3.30;1.00
21255;DHT22;10785;50.674;17.954;2022-12-18T09:05:22;-3.20;1.00
21255;DHT22;10785;50.674;17.954;2022-12-18T09:07:51;-3.20;1.00
21255;DHT22;10785;50.674;17.954;2022-12-18T09:10:19;-3.20;1.00
21255;DHT22;10785;50.674;17.954;2022-12-18T09:12:48;-3.20;1.00
21255;DHT22;10785;50.674;17.954;2022-12-18T09:15:18;-3.20;1.00
21255;DHT22;10785;50.674;17.954;2022-12-18T09:17:48;-3.10;1.00
21255;DHT22;10785;50.674;17.954;2022-12-18T09:20:17;-3.10;1.00
21255;DHT22;10785;50.674;17.954;2022-12-18T09:22:46;-3.10;1.00
21255;DHT22;10785;50.674;17.954;2022-12-18T09:25:14;-3.00;1.00
21255;DHT22;10785;50.674;17.954;2022-12-18T09:27:47;-2.90;1.00
21255;DHT22;10785;50.674;17.954;2022-12-18T09:30:17;-3.00;1.00
21255;DHT22;10785;50.674;17.954;2022-12-18T09:32:46;-3.00;1.00
21255;DHT22;10785;50.674;17.954;2022-12-18T09:35:14;-3.00;1.00
21255;DHT22;10785;50.674;17.954;2022-12-18T09:37:43;-3.00;1.00
21255;DHT22;10785;50.674;17.954;2022-12-18T09:40:14;-2.90;1.00
21255;DHT22;10785;50.674;17.954;2022-12-18T09:42:46;-2.80;1.00
21255;DHT22;10785;50.674;17.954;2022-12-18T09:45:18;-2.70;1.00
21255;DHT22;10785;50.674;17.954;2022-12-18T09:47:48;-2.70;1.00
21255;DHT22;10785;50.674;17.954;2022-12-18T09:50:23;-2.70;1.00
21255;DHT22;10785;50.674;17.954;2022-12-18T09:52:55;-2.60;1.00
21255;DHT22;10785;50.674;17.954;2022-12-18T09:55:30;-2.60;1.00
21255;DHT22;10785;50.674;17.954;2022-12-18T09:58:07;-2.60;1.00
21255;DHT22;10785;50.674;17.954;2022-12-18T10:00:43;-2.60;1.00
21255;DHT22;10785;50.674;17.954;2022-12-18T10:03:13;-2.50;1.00
21255;DHT22;10785;50.674;17.954;2022-12-18T10:05:49;-2.40;1.00
21255;DHT22;10785;50.674;17.954;2022-12-18T10:08:24;-2.50;1.00
21255;DHT22;10785;50.674;17.954;2022-12-18T10:10:59;-2.50;1.00
21255;DHT22;10785;50.674;17.954;2022-12-18T10:13:38;-2.60;1.00
21255;DHT22;10785;50.674;17.954;2022-12-18T10:16:14;-2.60;1.00
21255;DHT22;10785;50.674;17.954;2022-12-18T10:18:57;-2.70;1.00
21255;DHT22;10785;50.674;17.954;2022-12-18T10:21:32;-2.70;1.00
21255;DHT22;10785;50.674;17.954;2022-12-18T10:24:12;-2.70;1.00
21255;DHT22;10785;50.674;17.954;2022-12-18T10:26:42;-2.70;1.00
21255;DHT22;10785;50.674;17.954;2022-12-18T10:29:12;-2.70;1.00
21255;DHT22;10785;50.674;17.954;2022-12-18T10:31:42;-2.70;1.00
21255;DHT22;10785;50.674;17.954;2022-12-18T10:34:12;-2.70;1.00
21255;DHT22;10785;50.674;17.954;2022-12-18T10:36:43;-2.70;1.00
21255;DHT22;10785;50.674;17.954;2022-12-18T10:39:17;-2.70;1.00
21255;DHT22;10785;50.674;17.954;2022-12-18T10:41:45;-2.70;1.00
21255;DHT22;10785;50.674;17.954;2022-12-18T10:44:18;-2.70;1.00
21255;DHT22;10785;50.674;17.954;2022-12-18T10:46:50;-2.60;1.00
21255;DHT22;10785;50.674;17.954;2022-12-18T10:49:22;-2.50;1.00
21255;DHT22;10785;50.674;17.954;2022-12-18T10:52:03;-2.40;1.00
21255;DHT22;10785;50.674;17.954;2022-12-18T10:54:34;-2.40;1.00
21255;DHT22;10785;50.674;17.954;2022-12-18T10:57:17;-2.40;1.00
21255;DHT22;10785;50.674;17.954;2022-12-18T10:59:58;-2.30;1.00
21255;DHT22;10785;50.674;17.954;2022-12-18T11:02:34;-2.30;1.00
21255;DHT22;10785;50.674;17.954;2022-12-18T11:05:24;-2.40;1.00
21255;DHT22;10785;50.674;17.954;2022-12-18T11:07:54;-2.50;1.00
21255;DHT22;10785;50.674;17.954;2022-12-18T11:10:27;-2.60;1.00
21255;DHT22;10785;50.674;17.954;2022-12-18T11:13:00;-2.50;1.00
21255;DHT22;10785;50.674;17.954;2022-12-18T11:15:37;-2.50;1.00
21255;DHT22;10785;50.674;17.954;2022-12-18T11:18:17;-2.40;1.00
21255;DHT22;10785;50.674;17.954;2022-12-18T11:20:51;-2.40;1.00
21255;DHT22;10785;50.674;17.954;2022-12-18T11:23:26;-2.50;1.00
21255;DHT22;10785;50.674;17.954;2022-12-18T11:25:57;-2.50;1.00
21255;DHT22;10785;50.674;17.954;2022-12-18T11:28:29;-2.40;1.00
21255;DHT22;10785;50.674;17.954;2022-12-18T11:31:19;-2.40;1.00
21255;DHT22;10785;50.674;17.954;2022-12-18T11:34:01;-2.40;1.00
21255;DHT22;10785;50.674;17.954;2022-12-18T11:36:52;-2.50;1.00
21255;DHT22;10785;50.674;17.954;2022-12-18T11:39:24;-2.50;1.00
21255;DHT22;10785;50.674;17.954;2022-12-18T11:42:03;-2.40;1.00
21255;DHT22;10785;50.674;17.954;2022-12-18T11:44:44;-2.50;1.00
21255;DHT22;10785;50.674;17.954;2022-12-18T11:47:21;-2.40;1.00
21255;DHT22;10785;50.674;17.954;2022-12-18T11:49:55;-2.50;1.00
21255;DHT22;10785;50.674;17.954;2022-12-18T11:52:33;-2.40;1.00
21255;DHT22;10785;50.674;17.954;2022-12-18T11:55:11;-2.40;1.00
21255;DHT22;10785;50.674;17.954;2022-12-18T11:57:47;-2.50;1.00
21255;DHT22;10785;50.674;17.954;2022-12-18T12:00:19;-2.30;1.00
21255;DHT22;10785;50.674;17.954;2022-12-18T12:03:03;-2.30;1.00
21255;DHT22;10785;50.674;17.954;2022-12-18T12:05:50;-2.30;1.00
21255;DHT22;10785;50.674;17.954;2022-12-18T12:08:27;-2.40;1.00
21255;DHT22;10785;50.674;17.954;2022-12-18T12:11:07;-2.40;1.00
21255;DHT22;10785;50.674;17.954;2022-12-18T12:14:00;-2.40;1.00
21255;DHT22;10785;50.674;17.954;2022-12-18T12:16:35;-2.60;1.00
21255;DHT22;10785;50.674;17.954;2022-12-18T12:19:20;-2.60;1.00
21255;DHT22;10785;50.674;17.954;2022-12-18T12:21:55;-2.60;1.00
21255;DHT22;10785;50.674;17.954;2022-12-18T12:24:36;-2.60;1.00
21255;DHT22;10785;50.674;17.954;2022-12-18T12:27:13;-2.70;1.00
21255;DHT22;10785;50.674;17.954;2022-12-18T12:29:54;-2.80;1.00
21255;DHT22;10785;50.674;17.954;2022-12-18T12:35:25;-2.90;1.00
21255;DHT22;10785;50.674;17.954;2022-12-18T12:38:06;-2.90;1.00
21255;DHT22;10785;50.674;17.954;2022-12-18T12:40:39;-3.00;1.00
21255;DHT22;10785;50.674;17.954;2022-12-18T12:43:33;-3.00;1.00
21255;DHT22;10785;50.674;17.954;2022-12-18T12:46:04;-3.20;1.00
21255;DHT22;10785;50.674;17.954;2022-12-18T12:48:42;-3.20;1.00
21255;DHT22;10785;50.674;17.954;2022-12-18T12:51:16;-3.20;1.00
21255;DHT22;10785;50.674;17.954;2022-12-18T12:53:48;-3.10;1.00
21255;DHT22;10785;50.674;17.954;2022-12-18T12:56:18;-3.20;1.00
21255;DHT22;10785;50.674;17.954;2022-12-18T12:58:55;-3.20;1.00
21255;DHT22;10785;50.674;17.954;2022-12-18T13:01:32;-3.20;1.00
21255;DHT22;10785;50.674;17.954;2022-12-18T13:04:10;-3.20;1.00
21255;DHT22;10785;50.674;17.954;2022-12-18T13:06:46;-3.30;1.00
21255;DHT22;10785;50.674;17.954;2022-12-18T13:09:17;-3.20;1.00
21255;DHT22;10785;50.674;17.954;2022-12-18T13:11:47;-3.20;1.00
21255;DHT22;10785;50.674;17.954;2022-12-18T13:14:35;-3.30;1.00
21255;DHT22;10785;50.674;17.954;2022-12-18T13:17:29;-3.30;1.00
21255;DHT22;10785;50.674;17.954;2022-12-18T13:20:10;-3.30;1.00
21255;DHT22;10785;50.674;17.954;2022-12-18T13:22:45;-3.40;1.00
21255;DHT22;10785;50.674;17.954;2022-12-18T13:25:34;-3.40;1.00
21255;DHT22;10785;50.674;17.954;2022-12-18T13:28:12;-3.40;1.00
21255;DHT22;10785;50.674;17.954;2022-12-18T13:30:59;-3.50;1.00
21255;DHT22;10785;50.674;17.954;2022-12-18T13:33:40;-3.50;1.00
21255;DHT22;10785;50.674;17.954;2022-12-18T13:36:31;-3.60;1.00
21255;DHT22;10785;50.674;17.954;2022-12-18T13:39:21;-3.80;1.00
21255;DHT22;10785;50.674;17.954;2022-12-18T13:42:40;-3.90;1.00
21255;DHT22;10785;50.674;17.954;2022-12-18T13:45:46;-4.00;1.00
21255;DHT22;10785;50.674;17.954;2022-12-18T13:48:18;-4.10;1.00
21255;DHT22;10785;50.674;17.954;2022-12-18T13:50:53;-4.10;1.00
21255;DHT22;10785;50.674;17.954;2022-12-18T13:53:27;-4.20;1.00
21255;DHT22;10785;50.674;17.954;2022-12-18T13:55:58;-4.30;1.00
21255;DHT22;10785;50.674;17.954;2022-12-18T13:58:28;-4.30;1.00
21255;DHT22;10785;50.674;17.954;2022-12-18T14:00:57;-4.40;1.00
21255;DHT22;10785;50.674;17.954;2022-12-18T14:03:28;-4.40;1.00
21255;DHT22;10785;50.674;17.954;2022-12-18T14:06:03;-4.50;1.00
21255;DHT22;10785;50.674;17.954;2022-12-18T14:08:38;-4.50;1.00
21255;DHT22;10785;50.674;17.954;2022-12-18T14:11:19;-4.60;1.00
21255;DHT22;10785;50.674;17.954;2022-12-18T14:13:50;-4.70;1.00
21255;DHT22;10785;50.674;17.954;2022-12-18T14:16:19;-4.80;1.00
21255;DHT22;10785;50.674;17.954;2022-12-18T14:18:52;-4.80;1.00
21255;DHT22;10785;50.674;17.954;2022-12-18T14:21:34;-4.90;1.00
21255;DHT22;10785;50.674;17.954;2022-12-18T14:24:05;-5.00;1.00
21255;DHT22;10785;50.674;17.954;2022-12-18T14:26:34;-5.00;1.00
21255;DHT22;10785;50.674;17.954;2022-12-18T14:29:20;-5.10;1.00
21255;DHT22;10785;50.674;17.954;2022-12-18T14:32:04;-5.10;1.00
21255;DHT22;10785;50.674;17.954;2022-12-18T14:34:41;-5.20;1.00
21255;DHT22;10785;50.674;17.954;2022-12-18T14:37:10;-5.30;1.00
21255;DHT22;10785;50.674;17.954;2022-12-18T14:39:39;-5.30;1.00
21255;DHT22;10785;50.674;17.954;2022-12-18T14:42:10;-5.40;1.00
21255;DHT22;10785;50.674;17.954;2022-12-18T14:44:41;-5.40;1.00
21255;DHT22;10785;50.674;17.954;2022-12-18T14:47:29;-5.50;1.00
21255;DHT22;10785;50.674;17.954;2022-12-18T14:49:58;-5.50;1.00
21255;DHT22;10785;50.674;17.954;2022-12-18T14:52:29;-5.60;1.00
21255;DHT22;10785;50.674;17.954;2022-12-18T14:54:59;-5.60;1.00
21255;DHT22;10785;50.674;17.954;2022-12-18T14:57:34;-5.60;1.00
21255;DHT22;10785;50.674;17.954;2022-12-18T15:00:11;-5.60;1.00
21255;DHT22;10785;50.674;17.954;2022-12-18T15:02:43;-5.70;1.00
21255;DHT22;10785;50.674;17.954;2022-12-18T15:05:18;-5.70;1.00
21255;DHT22;10785;50.674;17.954;2022-12-18T15:07:50;-5.60;1.00
21255;DHT22;10785;50.674;17.954;2022-12-18T15:10:20;-5.60;9.70
21255;DHT22;10785;50.674;17.954;2022-12-18T15:12:50;-5.60;1.30
21255;DHT22;10785;50.674;17.954;2022-12-18T15:15:51;-5.70;1.00
21255;DHT22;10785;50.674;17.954;2022-12-18T15:18:23;-5.70;7.70
21255;DHT22;10785;50.674;17.954;2022-12-18T15:20:57;-5.70;1.00
21255;DHT22;10785;50.674;17.954;2022-12-18T15:23:29;-5.70;1.00
21255;DHT22;10785;50.674;17.954;2022-12-18T15:26:04;-5.70;4.90
21255;DHT22;10785;50.674;17.954;2022-12-18T15:28:37;-5.70;1.00
21255;DHT22;10785;50.674;17.954;2022-12-18T15:31:22;-5.70;4.10
21255;DHT22;10785;50.674;17.954;2022-12-18T15:34:10;-5.70;6.40
21255;DHT22;10785;50.674;17.954;2022-12-18T15:36:39;-5.70;1.00
21255;DHT22;10785;50.674;17.954;2022-12-18T15:39:11;-5.70;1.00
21255;DHT22;10785;50.674;17.954;2022-12-18T15:41:40;-5.70;11.50
21255;DHT22;10785;50.674;17.954;2022-12-18T15:44:29;-5.70;9.00
21255;DHT22;10785;50.674;17.954;2022-12-18T15:46:58;-5.70;5.80
21255;DHT22;10785;50.674;17.954;2022-12-18T15:49:26;-5.70;9.80
21255;DHT22;10785;50.674;17.954;2022-12-18T15:51:58;-5.80;11.50
21255;DHT22;10785;50.674;17.954;2022-12-18T15:54:27;-5.80;1.00
21255;DHT22;10785;50.674;17.954;2022-12-18T15:57:14;-5.80;10.90
21255;DHT22;10785;50.674;17.954;2022-12-18T15:59:52;-5.80;18.80
21255;DHT22;10785;50.674;17.954;2022-12-18T16:02:23;-5.80;6.90
21255;DHT22;10785;50.674;17.954;2022-12-18T16:04:52;-5.90;11.60
21255;DHT22;10785;50.674;17.954;2022-12-18T16:07:21;-5.90;6.70
21255;DHT22;10785;50.674;17.954;2022-12-18T16:09:52;-6.00;9.70